sensor_id;sensor_type;location;lat;lon;timestamp;pressure;altitude;pressure_sealevel;temperature;humidity
22872;BME280;11603;44.910;8.630;2022-12-18T00:02:24;101826.03;;;4.03;100.00
22872;BME280;11603;44.910;8.630;2022-12-18T00:04:49;101832.13;;;4.10;100.00
22872;BME280;11603;44.910;8.630;2022-12-18T00:07:15;101837.31;;;4.17;100.00
22872;BME280;11603;44.910;8.630;2022-12-18T00:09:40;101833.72;;;4.20;100.00
22872;BME280;11603;44.910;8.630;2022-12-18T00:12:06;101831.94;;;4.20;100.00
22872;BME280;11603;44.910;8.630;2022-12-18T00:14:32;101833.78;;;4.18;100.00
22872;BME280;11603;44.910;8.630;2022-12-18T00:16:57;101835.41;;;4.24;100.00
22872;BME280;11603;44.910;8.630;2022-12-18T00:19:26;101845.81;;;4.36;100.00
22872;BME280;11603;44.910;8.630;2022-12-18T00:21:51;101835.22;;;4.36;100.00
22872;BME280;11603;44.910;8.630;2022-12-18T00:24:17;101839.72;;;4.33;100.00
22872;BME280;11603;44.910;8.630;2022-12-18T00:26:42;101851.28;;;4.27;100.00
22872;BME280;11603;44.910;8.630;2022-12-18T00:29:12;101848.78;;;4.18;100.00
22872;BME280;11603;44.910;8.630;2022-12-18T00:31:39;101847.03;;;4.15;100.00
22872;BME280;11603;44.910;8.630;2022-12-18T00:34:05;101861.22;;;4.11;100.00
22872;BME280;11603;44.910;8.630;2022-12-18T00:36:33;101866.47;;;4.14;100.00
22872;BME280;11603;44.910;8.630;2022-12-18T00:39:01;101863.88;;;4.13;100.00
22872;BME280;11603;44.910;8.630;2022-12-18T00:41:27;101867.44;;;4.09;100.00
22872;BME280;11603;44.910;8.630;2022-12-18T00:44:13;101872.72;;;4.10;100.00
22872;BME280;11603;44.910;8.630;2022-12-18T00:46:39;101878.09;;;4.06;100.00
22872;BME280;11603;44.910;8.630;2022-12-18T00:49:05;101877.19;;;4.07;100.00
22872;BME280;11603;44.910;8.630;2022-12-18T00:51:31;101883.69;;;3.84;100.00
22872;BME280;11603;44.910;8.630;2022-12-18T00:53:56;101891.63;;;3.83;100.00
22872;BME280;11603;44.910;8.630;2022-12-18T00:56:22;101902.16;;;3.89;100.00
22872;BME280;11603;44.910;8.630;2022-12-18T00:58:48;101897.66;;;3.93;100.00
22872;BME280;11603;44.910;8.630;2022-12-18T01:01:14;101912.84;;;3.81;100.00
22872;BME280;11603;44.910;8.630;2022-12-18T01:03:40;101913.56;;;3.93;100.00
22872;BME280;11603;44.910;8.630;2022-12-18T01:06:07;101907.41;;;3.92;100.00
22872;BME280;11603;44.910;8.630;2022-12-18T01:08:33;101910.94;;;3.91;100.00
22872;BME280;11603;44.910;8.630;2022-12-18T01:10:58;101921.47;;;3.97;100.00
22872;BME280;11603;44.910;8.630;2022-12-18T01:13:24;101920.59;;;3.97;100.00
22872;BME280;11603;44.910;8.630;2022-12-18T01:15:50;101921.47;;;3.97;100.00
22872;BME280;11603;44.910;8.630;2022-12-18T01:18:16;101918.91;;;3.88;100.00
22872;BME280;11603;44.910;8.630;2022-12-18T01:20:41;101931.25;;;3.89;100.00
22872;BME280;11603;44.910;8.630;2022-12-18T01:23:07;101926.91;;;3.87;100.00
22872;BME280;11603;44.910;8.630;2022-12-18T01:25:35;101927.81;;;3.82;100.00
22872;BME280;11603;44.910;8.630;2022-12-18T01:28:01;101944.63;;;3.80;100.00
22872;BME280;11603;44.910;8.630;2022-12-18T01:30:27;101937.63;;;3.74;100.00
22872;BME280;11603;44.910;8.630;2022-12-18T01:32:52;101947.34;;;3.74;100.00
22872;BME280;11603;44.910;8.630;2022-12-18T01:35:18;101947.28;;;3.80;100.00
22872;BME280;11603;44.910;8.630;2022-12-18T01:37:45;101947.34;;;3.74;100.00
22872;BME280;11603;44.910;8.630;2022-12-18T01:40:11;101943.03;;;3.65;100.00
22872;BME280;11603;44.910;8.630;2022-12-18T01:42:36;101950.06;;;3.68;100.00
22872;BME280;11603;44.910;8.630;2022-12-18T01:47:46;101960.75;;;3.57;100.00
22872;BME280;11603;44.910;8.630;2022-12-18T01:50:25;101959.03;;;3.55;100.00
22872;BME280;11603;44.910;8.630;2022-12-18T01:53:00;101964.28;;;3.61;100.00
22872;BME280;11603;44.910;8.630;2022-12-18T01:55:35;101972.16;;;3.62;100.00
22872;BME280;11603;44.910;8.630;2022-12-18T01:58:02;101968.69;;;3.57;100.00
22872;BME280;11603;44.910;8.630;2022-12-18T02:00:29;101978.34;;;3.61;100.00
22872;BME280;11603;44.910;8.630;2022-12-18T02:02:54;101973.16;;;3.55;100.00
22872;BME280;11603;44.910;8.630;2022-12-18T02:08:12;101974.97;;;3.50;100.00
22872;BME280;11603;44.910;8.630;2022-12-18T02:10:57;101978.44;;;3.54;100.00
22872;BME280;11603;44.910;8.630;2022-12-18T02:17:02;101979.97;;;3.73;100.00
22872;BME280;11603;44.910;8.630;2022-12-18T02:25:01;101975.56;;;3.72;100.00
22872;BME280;11603;44.910;8.630;2022-12-18T02:27:31;101976.50;;;3.68;100.00
22872;BME280;11603;44.910;8.630;2022-12-18T02:29:59;101976.41;;;3.77;100.00
22872;BME280;11603;44.910;8.630;2022-12-18T02:32:32;101983.44;;;3.81;100.00
22872;BME280;11603;44.910;8.630;2022-12-18T02:35:01;101986.84;;;3.91;100.00
22872;BME280;11603;44.910;8.630;2022-12-18T02:37:30;101985.03;;;3.93;100.00
22872;BME280;11603;44.910;8.630;2022-12-18T02:40:00;101986.69;;;4.01;100.00
22872;BME280;11603;44.910;8.630;2022-12-18T02:42:29;101984.81;;;4.09;100.00
22872;BME280;11603;44.910;8.630;2022-12-18T02:44:55;101986.56;;;4.12;100.00
22872;BME280;11603;44.910;8.630;2022-12-18T02:47:29;101992.69;;;4.14;100.00
22872;BME280;11603;44.910;8.630;2022-12-18T02:50:33;101997.31;;;3.98;100.00
22872;BME280;11603;44.910;8.630;2022-12-18T02:53:17;101998.31;;;3.90;100.00
22872;BME280;11603;44.910;8.630;2022-12-18T02:56:11;102007.06;;;3.95;100.00
22872;BME280;11603;44.910;8.630;2022-12-18T02:59:06;102007.00;;;4.02;100.00
22872;BME280;11603;44.910;8.630;2022-12-18T03:05:04;102009.63;;;4.02;100.00
22872;BME280;11603;44.910;8.630;2022-12-18T03:07:38;102010.50;;;4.03;100.00
22872;BME280;11603;44.910;8.630;2022-12-18T03:10:12;102018.53;;;3.97;100.00
22872;BME280;11603;44.910;8.630;2022-12-18T03:13:09;102020.13;;;4.10;100.00
22872;BME280;11603;44.910;8.630;2022-12-18T03:15:51;102019.16;;;4.17;100.00
22872;BME280;11603;44.910;8.630;2022-12-18T03:18:25;102020.00;;;4.19;100.00
22872;BME280;11603;44.910;8.630;2022-12-18T03:20:56;102013.78;;;4.23;100.00
22872;BME280;11603;44.910;8.630;2022-12-18T03:23:29;102017.31;;;4.20;100.00
22872;BME280;11603;44.910;8.630;2022-12-18T03:26:00;102024.44;;;4.17;100.00
22872;BME280;11603;44.910;8.630;2022-12-18T03:28:28;102020.94;;;4.15;100.00
22872;BME280;11603;44.910;8.630;2022-12-18T03:31:00;102026.16;;;4.19;100.00
22872;BME280;11603;44.910;8.630;2022-12-18T03:33:38;102023.44;;;4.25;100.00
22872;BME280;11603;44.910;8.630;2022-12-18T03:36:05;102020.88;;;4.19;100.00
22872;BME280;11603;44.910;8.630;2022-12-18T03:38:31;102025.25;;;4.23;100.00
22872;BME280;11603;44.910;8.630;2022-12-18T03:41:18;102019.03;;;4.26;100.00
22872;BME280;11603;44.910;8.630;2022-12-18T03:47:16;102038.44;;;4.25;100.00
22872;BME280;11603;44.910;8.630;2022-12-18T03:53:08;102026.41;;;4.03;100.00
22872;BME280;11603;44.910;8.630;2022-12-18T03:55:41;102032.41;;;4.14;100.00
22872;BME280;11603;44.910;8.630;2022-12-18T03:58:31;102027.03;;;4.20;100.00
22872;BME280;11603;44.910;8.630;2022-12-18T04:04:06;102049.03;;;4.26;100.00
22872;BME280;11603;44.910;8.630;2022-12-18T04:06:38;102045.50;;;4.29;100.00
22872;BME280;11603;44.910;8.630;2022-12-18T04:09:06;102053.50;;;4.23;100.00
22872;BME280;11603;44.910;8.630;2022-12-18T04:11:36;102050.13;;;4.09;100.00
22872;BME280;11603;44.910;8.630;2022-12-18T04:14:03;102051.94;;;4.07;100.00
22872;BME280;11603;44.910;8.630;2022-12-18T04:16:30;102053.56;;;4.17;100.00
22872;BME280;11603;44.910;8.630;2022-12-18T04:18:59;102065.00;;;4.20;100.00
22872;BME280;11603;44.910;8.630;2022-12-18T04:21:28;102062.28;;;4.25;100.00
22872;BME280;11603;44.910;8.630;2022-12-18T04:23:53;102059.63;;;4.25;100.00
22872;BME280;11603;44.910;8.630;2022-12-18T04:26:21;102060.53;;;4.24;100.00
22872;BME280;11603;44.910;8.630;2022-12-18T04:29:08;102079.25;;;4.12;100.00
22872;BME280;11603;44.910;8.630;2022-12-18T04:31:33;102069.53;;;4.12;100.00
22872;BME280;11603;44.910;8.630;2022-12-18T04:33:59;102075.84;;;4.01;100.00
22872;BME280;11603;44.910;8.630;2022-12-18T04:36:28;102076.84;;;3.88;100.00
22872;BME280;11603;44.910;8.630;2022-12-18T04:38:54;102076.91;;;3.84;100.00
22872;BME280;11603;44.910;8.630;2022-12-18T04:41:20;102067.94;;;3.98;100.00
22872;BME280;11603;44.910;8.630;2022-12-18T04:43:47;102083.78;;;4.01;100.00
22872;BME280;11603;44.910;8.630;2022-12-18T04:46:13;102076.72;;;4.03;100.00
22872;BME280;11603;44.910;8.630;2022-12-18T04:48:39;102080.31;;;3.93;100.00
22872;BME280;11603;44.910;8.630;2022-12-18T04:51:06;102085.75;;;3.82;100.00
22872;BME280;11603;44.910;8.630;2022-12-18T04:53:32;102083.84;;;3.95;100.00
22872;BME280;11603;44.910;8.630;2022-12-18T04:56:08;102090.78;;;4.06;100.00
22872;BME280;11603;44.910;8.630;2022-12-18T04:58:35;102091.63;;;4.08;100.00
22872;BME280;11603;44.910;8.630;2022-12-18T05:01:00;102087.06;;;4.19;100.00
22872;BME280;11603;44.910;8.630;2022-12-18T05:03:28;102091.41;;;4.28;100.00
22872;BME280;11603;44.910;8.630;2022-12-18T05:05:54;102091.34;;;4.31;100.00
22872;BME280;11603;44.910;8.630;2022-12-18T05:08:19;102091.34;;;4.34;100.00
22872;BME280;11603;44.910;8.630;2022-12-18T05:10:46;102093.09;;;4.34;100.00
22872;BME280;11603;44.910;8.630;2022-12-18T05:13:12;102106.34;;;4.32;100.00
22872;BME280;11603;44.910;8.630;2022-12-18T05:15:37;102106.59;;;4.12;100.00
22872;BME280;11603;44.910;8.630;2022-12-18T05:18:03;102121.72;;;4.03;100.00
22872;BME280;11603;44.910;8.630;2022-12-18T05:20:29;102127.84;;;4.06;100.00
22872;BME280;11603;44.910;8.630;2022-12-18T05:22:55;102128.69;;;4.10;100.00
22872;BME280;11603;44.910;8.630;2022-12-18T05:25:21;102133.03;;;4.18;100.00
22872;BME280;11603;44.910;8.630;2022-12-18T05:27:47;102138.31;;;4.17;100.00
22872;BME280;11603;44.910;8.630;2022-12-18T05:30:13;102135.66;;;4.18;100.00
22872;BME280;11603;44.910;8.630;2022-12-18T05:32:39;102143.75;;;4.05;100.00
22872;BME280;11603;44.910;8.630;2022-12-18T05:35:06;102140.19;;;4.06;100.00
22872;BME280;11603;44.910;8.630;2022-12-18T05:37:32;102144.78;;;3.92;100.00
22872;BME280;11603;44.910;8.630;2022-12-18T05:39:57;102146.59;;;3.83;100.00
22872;BME280;11603;44.910;8.630;2022-12-18T05:42:23;102144.97;;;3.69;100.00
22872;BME280;11603;44.910;8.630;2022-12-18T05:44:48;102148.50;;;3.68;100.00
22872;BME280;11603;44.910;8.630;2022-12-18T05:47:14;102151.16;;;3.71;100.00
22872;BME280;11603;44.910;8.630;2022-12-18T05:49:39;102157.31;;;3.71;100.00
22872;BME280;11603;44.910;8.630;2022-12-18T05:52:05;102160.06;;;3.59;100.00
22872;BME280;11603;44.910;8.630;2022-12-18T05:54:30;102160.00;;;3.64;100.00
22872;BME280;11603;44.910;8.630;2022-12-18T05:56:56;102162.72;;;3.59;100.00
22872;BME280;11603;44.910;8.630;2022-12-18T05:59:22;102169.72;;;3.65;100.00
22872;BME280;11603;44.910;8.630;2022-12-18T06:01:47;102177.63;;;3.69;100.00
22872;BME280;11603;44.910;8.630;2022-12-18T06:04:13;102178.53;;;3.65;100.00
22872;BME280;11603;44.910;8.630;2022-12-18T06:06:39;102182.94;;;3.65;100.00
22872;BME280;11603;44.910;8.630;2022-12-18T06:09:05;102182.03;;;3.70;100.00
22872;BME280;11603;44.910;8.630;2022-12-18T06:11:38;102188.13;;;3.77;100.00
22872;BME280;11603;44.910;8.630;2022-12-18T06:14:05;102189.03;;;3.76;100.00
22872;BME280;11603;44.910;8.630;2022-12-18T06:16:31;102187.22;;;3.81;100.00
22872;BME280;11603;44.910;8.630;2022-12-18T06:18:58;102188.97;;;3.82;100.00
22872;BME280;11603;44.910;8.630;2022-12-18T06:21:23;102191.53;;;3.88;100.00
22872;BME280;11603;44.910;8.630;2022-12-18T06:23:49;102191.63;;;3.77;100.00
22872;BME280;11603;44.910;8.630;2022-12-18T06:26:14;102191.69;;;3.76;100.00
22872;BME280;11603;44.910;8.630;2022-12-18T06:28:40;102195.97;;;3.89;100.00
22872;BME280;11603;44.910;8.630;2022-12-18T06:31:06;102200.41;;;3.82;100.00
22872;BME280;11603;44.910;8.630;2022-12-18T06:33:32;102204.88;;;3.82;100.00
22872;BME280;11603;44.910;8.630;2022-12-18T06:38:27;102210.06;;;3.91;100.00
22872;BME280;11603;44.910;8.630;2022-12-18T06:40:53;102209.22;;;3.86;100.00
22872;BME280;11603;44.910;8.630;2022-12-18T06:43:18;102216.34;;;3.79;100.00
22872;BME280;11603;44.910;8.630;2022-12-18T06:45:44;102213.75;;;3.73;100.00
22872;BME280;11603;44.910;8.630;2022-12-18T06:48:09;102218.06;;;3.85;100.00
22872;BME280;11603;44.910;8.630;2022-12-18T06:50:35;102224.16;;;3.93;100.00
22872;BME280;11603;44.910;8.630;2022-12-18T06:53:00;102232.91;;;4.01;100.00
22872;BME280;11603;44.910;8.630;2022-12-18T06:55:26;102236.41;;;4.05;100.00
22872;BME280;11603;44.910;8.630;2022-12-18T06:57:51;102238.13;;;4.10;100.00
22872;BME280;11603;44.910;8.630;2022-12-18T07:00:17;102239.78;;;4.19;100.00
22872;BME280;11603;44.910;8.630;2022-12-18T07:02:43;102245.97;;;4.22;100.00
22872;BME280;11603;44.910;8.630;2022-12-18T07:05:08;102246.84;;;4.21;100.00
22872;BME280;11603;44.910;8.630;2022-12-18T07:07:34;102247.72;;;4.23;100.00
22872;BME280;11603;44.910;8.630;2022-12-18T07:10:00;102249.63;;;4.06;100.00
22872;BME280;11603;44.910;8.630;2022-12-18T07:12:27;102255.81;;;4.04;100.00
22872;BME280;11603;44.910;8.630;2022-12-18T07:14:52;102256.75;;;4.00;100.00
22872;BME280;11603;44.910;8.630;2022-12-18T07:17:18;102254.09;;;3.98;100.00
22872;BME280;11603;44.910;8.630;2022-12-18T07:19:43;102251.41;;;4.04;100.00
22872;BME280;11603;44.910;8.630;2022-12-18T07:22:09;102262.06;;;3.98;100.00
22872;BME280;11603;44.910;8.630;2022-12-18T07:24:34;102262.88;;;4.06;100.00
22872;BME280;11603;44.910;8.630;2022-12-18T07:27:00;102271.63;;;4.17;100.00
22872;BME280;11603;44.910;8.630;2022-12-18T07:29:25;102269.81;;;4.22;100.00
22872;BME280;11603;44.910;8.630;2022-12-18T07:31:51;102275.94;;;4.29;100.00
22872;BME280;11603;44.910;8.630;2022-12-18T07:34:16;102277.69;;;4.29;100.00
22872;BME280;11603;44.910;8.630;2022-12-18T07:36:42;102282.06;;;4.31;100.00
22872;BME280;11603;44.910;8.630;2022-12-18T07:39:08;102293.53;;;4.32;100.00
22872;BME280;11603;44.910;8.630;2022-12-18T07:41:33;102294.53;;;4.21;100.00
22872;BME280;11603;44.910;8.630;2022-12-18T07:44:10;102302.56;;;4.11;100.00
22872;BME280;11603;44.910;8.630;2022-12-18T07:46:36;102308.66;;;4.19;100.00
22872;BME280;11603;44.910;8.630;2022-12-18T07:49:01;102314.78;;;4.29;100.00
22872;BME280;11603;44.910;8.630;2022-12-18T07:51:27;102315.53;;;4.40;100.00
22872;BME280;11603;44.910;8.630;2022-12-18T07:53:52;102321.72;;;4.40;100.00
22872;BME280;11603;44.910;8.630;2022-12-18T07:56:18;102330.59;;;4.38;100.00
22872;BME280;11603;44.910;8.630;2022-12-18T07:58:43;102331.41;;;4.44;100.00
22872;BME280;11603;44.910;8.630;2022-12-18T08:01:11;102333.13;;;4.50;100.00
22872;BME280;11603;44.910;8.630;2022-12-18T08:03:38;102330.50;;;4.48;100.00
22872;BME280;11603;44.910;8.630;2022-12-18T08:06:06;102331.41;;;4.44;100.00
22872;BME280;11603;44.910;8.630;2022-12-18T08:08:33;102335.84;;;4.42;100.00
22872;BME280;11603;44.910;8.630;2022-12-18T08:10:59;102344.66;;;4.44;100.00
22872;BME280;11603;44.910;8.630;2022-12-18T08:13:25;102335.75;;;4.54;100.00
22872;BME280;11603;44.910;8.630;2022-12-18T08:16:06;102333.09;;;4.54;100.00
22872;BME280;11603;44.910;8.630;2022-12-18T08:18:35;102333.03;;;4.59;100.00
22872;BME280;11603;44.910;8.630;2022-12-18T08:21:13;102342.66;;;4.69;100.00
22872;BME280;11603;44.910;8.630;2022-12-18T08:23:40;102340.94;;;4.65;100.00
22872;BME280;11603;44.910;8.630;2022-12-18T08:26:06;102351.59;;;4.60;100.00
22872;BME280;11603;44.910;8.630;2022-12-18T08:28:32;102347.97;;;4.69;100.00
22872;BME280;11603;44.910;8.630;2022-12-18T08:30:58;102352.28;;;4.79;100.00
22872;BME280;11603;44.910;8.630;2022-12-18T08:33:23;102361.00;;;4.89;100.00
22872;BME280;11603;44.910;8.630;2022-12-18T08:35:49;102364.38;;;5.03;100.00
22872;BME280;11603;44.910;8.630;2022-12-18T08:38:15;102365.19;;;5.11;100.00
22872;BME280;11603;44.910;8.630;2022-12-18T08:40:40;102361.59;;;5.13;100.00
22872;BME280;11603;44.910;8.630;2022-12-18T08:43:07;102368.63;;;5.19;100.00
22872;BME280;11603;44.910;8.630;2022-12-18T08:45:53;102363.25;;;5.24;100.00
22872;BME280;11603;44.910;8.630;2022-12-18T08:48:18;102369.56;;;5.15;100.00
22872;BME280;11603;44.910;8.630;2022-12-18T08:50:56;102376.63;;;5.15;100.00
22872;BME280;11603;44.910;8.630;2022-12-18T08:53:26;102379.22;;;5.22;100.00
22872;BME280;11603;44.910;8.630;2022-12-18T08:55:52;102386.19;;;5.31;100.00
22872;BME280;11603;44.910;8.630;2022-12-18T08:58:19;102389.72;;;5.30;100.00
22872;BME280;11603;44.910;8.630;2022-12-18T09:00:44;102381.81;;;5.28;100.00
22872;BME280;11603;44.910;8.630;2022-12-18T09:03:17;102380.16;;;5.18;100.00
22872;BME280;11603;44.910;8.630;2022-12-18T09:05:45;102380.88;;;5.32;100.00
22872;BME280;11603;44.910;8.630;2022-12-18T09:08:11;102374.53;;;5.42;100.00
22872;BME280;11603;44.910;8.630;2022-12-18T09:10:46;102375.31;;;5.52;100.00
22872;BME280;11603;44.910;8.630;2022-12-18T09:13:13;102373.47;;;5.55;100.00
22872;BME280;11603;44.910;8.630;2022-12-18T09:15:43;102386.66;;;5.62;100.00
22872;BME280;11603;44.910;8.630;2022-12-18T09:18:11;102388.50;;;5.60;100.00
22872;BME280;11603;44.910;8.630;2022-12-18T09:20:37;102398.97;;;5.70;100.00
22872;BME280;11603;44.910;8.630;2022-12-18T09:23:02;102392.72;;;5.74;100.00
22872;BME280;11603;44.910;8.630;2022-12-18T09:25:29;102397.16;;;5.72;100.00
22872;BME280;11603;44.910;8.630;2022-12-18T09:28:18;102402.38;;;5.78;100.00
22872;BME280;11603;44.910;8.630;2022-12-18T09:30:47;102406.75;;;5.84;100.00
22872;BME280;11603;44.910;8.630;2022-12-18T09:33:12;102403.19;;;5.85;100.00
22872;BME280;11603;44.910;8.630;2022-12-18T09:35:41;102407.63;;;5.83;100.00
22872;BME280;11603;44.910;8.630;2022-12-18T09:38:08;102409.44;;;5.81;100.00
22872;BME280;11603;44.910;8.630;2022-12-18T09:40:59;102406.00;;;5.71;100.00
22872;BME280;11603;44.910;8.630;2022-12-18T09:46:03;102409.59;;;5.69;100.00
22872;BME280;11603;44.910;8.630;2022-12-18T09:48:42;102402.47;;;5.72;100.00
22872;BME280;11603;44.910;8.630;2022-12-18T09:51:17;102408.50;;;5.83;100.00
22872;BME280;11603;44.910;8.630;2022-12-18T09:53:47;102404.13;;;5.81;100.00
22872;BME280;11603;44.910;8.630;2022-12-18T09:56:17;102408.50;;;5.83;100.00
22872;BME280;11603;44.910;8.630;2022-12-18T09:58:50;102407.53;;;5.92;100.00
22872;BME280;11603;44.910;8.630;2022-12-18T10:01:21;102409.28;;;5.94;100.00
22872;BME280;11603;44.910;8.630;2022-12-18T10:03:50;102404.66;;;6.07;100.00
22872;BME280;11603;44.910;8.630;2022-12-18T10:06:40;102402.00;;;6.07;100.00
22872;BME280;11603;44.910;8.630;2022-12-18T10:11:58;102395.53;;;6.25;100.00
22872;BME280;11603;44.910;8.630;2022-12-18T10:14:50;102398.28;;;6.20;100.00
22872;BME280;11603;44.910;8.630;2022-12-18T10:20:41;102398.81;;;6.42;100.00
22872;BME280;11603;44.910;8.630;2022-12-18T10:26:06;102387.34;;;6.38;100.00
22872;BME280;11603;44.910;8.630;2022-12-18T10:28:36;102389.91;;;6.45;100.00
22872;BME280;11603;44.910;8.630;2022-12-18T10:31:05;102384.47;;;6.54;100.00
22872;BME280;11603;44.910;8.630;2022-12-18T10:33:32;102386.31;;;6.49;100.00
22872;BME280;11603;44.910;8.630;2022-12-18T10:35:58;102388.28;;;6.34;100.00
22872;BME280;11603;44.910;8.630;2022-12-18T10:38:30;102384.66;;;6.40;100.00
22872;BME280;11603;44.910;8.630;2022-12-18T10:48:39;102380.75;;;6.62;100.00
22872;BME280;11603;44.910;8.630;2022-12-18T10:51:06;102381.63;;;6.64;100.00
22872;BME280;11603;44.910;8.630;2022-12-18T10:53:34;102380.66;;;6.68;100.00
22872;BME280;11603;44.910;8.630;2022-12-18T10:56:00;102377.47;;;6.48;100.00
22872;BME280;11603;44.910;8.630;2022-12-18T10:58:32;102384.56;;;6.46;100.00
22872;BME280;11603;44.910;8.630;2022-12-18T11:03:35;102384.09;;;6.73;100.00
22872;BME280;11603;44.910;8.630;2022-12-18T11:06:04;102387.50;;;6.81;100.00
22872;BME280;11603;44.910;8.630;2022-12-18T11:08:30;102393.53;;;6.91;100.00
22872;BME280;11603;44.910;8.630;2022-12-18T11:10:55;102388.94;;;7.01;100.00
22872;BME280;11603;44.910;8.630;2022-12-18T11:13:23;102389.59;;;7.12;100.00
22872;BME280;11603;44.910;8.630;2022-12-18T11:15:50;102393.09;;;7.15;100.00
22872;BME280;11603;44.910;8.630;2022-12-18T11:20:57;102388.94;;;6.99;100.00
22872;BME280;11603;44.910;8.630;2022-12-18T11:23:24;102387.19;;;6.98;100.00
22872;BME280;11603;44.910;8.630;2022-12-18T11:25:58;102389.66;;;7.09;100.00
22872;BME280;11603;44.910;8.630;2022-12-18T11:28:27;102390.72;;;7.00;100.00
22872;BME280;11603;44.910;8.630;2022-12-18T11:31:15;102383.72;;;6.95;100.00
22872;BME280;11603;44.910;8.630;2022-12-18T11:34:05;102388.38;;;6.82;100.00
22872;BME280;11603;44.910;8.630;2022-12-18T11:36:33;102386.31;;;6.98;100.00
22872;BME280;11603;44.910;8.630;2022-12-18T11:39:09;102380.03;;;7.02;100.00
22872;BME280;11603;44.910;8.630;2022-12-18T11:41:45;102381.00;;;6.98;100.00
22872;BME280;11603;44.910;8.630;2022-12-18T11:44:55;102389.03;;;6.95;100.00
22872;BME280;11603;44.910;8.630;2022-12-18T11:47:44;102379.38;;;6.91;100.00
22872;BME280;11603;44.910;8.630;2022-12-18T11:50:19;102380.88;;;7.04;100.00
22872;BME280;11603;44.910;8.630;2022-12-18T11:52:45;102372.78;;;7.10;100.00
22872;BME280;11603;44.910;8.630;2022-12-18T11:55:16;102372.69;;;7.14;100.00
22872;BME280;11603;44.910;8.630;2022-12-18T11:58:13;102368.03;;;7.26;100.00
22872;BME280;11603;44.910;8.630;2022-12-18T12:01:33;102366.00;;;7.38;100.00
22872;BME280;11603;44.910;8.630;2022-12-18T12:07:19;102357.88;;;7.44;100.00
22872;BME280;11603;44.910;8.630;2022-12-18T12:12:57;102367.31;;;7.59;100.00
22872;BME280;11603;44.910;8.630;2022-12-18T12:18:11;102378.91;;;7.58;100.00
22872;BME280;11603;44.910;8.630;2022-12-18T12:20:57;102376.19;;;7.59;100.00
22872;BME280;11603;44.910;8.630;2022-12-18T12:26:03;102368.44;;;7.49;100.00
22872;BME280;11603;44.910;8.630;2022-12-18T12:34:45;102355.84;;;7.57;100.00
22872;BME280;11603;44.910;8.630;2022-12-18T12:40:04;102351.84;;;7.76;100.00
22872;BME280;11603;44.910;8.630;2022-12-18T12:42:39;102341.34;;;7.70;100.00
22872;BME280;11603;44.910;8.630;2022-12-18T12:45:36;102344.59;;;7.84;100.00
22872;BME280;11603;44.910;8.630;2022-12-18T12:48:04;102333.75;;;7.90;100.00
22872;BME280;11603;44.910;8.630;2022-12-18T12:50:34;102335.28;;;8.02;100.00
22872;BME280;11603;44.910;8.630;2022-12-18T12:53:01;102337.78;;;8.09;100.00
22872;BME280;11603;44.910;8.630;2022-12-18T12:55:30;102332.28;;;8.16;100.00
22872;BME280;11603;44.910;8.630;2022-12-18T12:58:07;102332.31;;;8.14;100.00
22872;BME280;11603;44.910;8.630;2022-12-18T13:01:04;102330.50;;;8.16;100.00
22872;BME280;11603;44.910;8.630;2022-12-18T13:06:57;102324.97;;;8.24;100.00
22872;BME280;11603;44.910;8.630;2022-12-18T13:09:24;102319.72;;;8.21;100.00
22872;BME280;11603;44.910;8.630;2022-12-18T13:11:50;102319.75;;;8.19;100.00
22872;BME280;11603;44.910;8.630;2022-12-18T13:14:36;102319.63;;;8.24;100.00
22872;BME280;11603;44.910;8.630;2022-12-18T13:19:50;102316.78;;;8.33;100.00
22872;BME280;11603;44.910;8.630;2022-12-18T13:22:33;102315.84;;;8.35;100.00
22872;BME280;11603;44.910;8.630;2022-12-18T13:24:59;102308.75;;;8.34;100.00
22872;BME280;11603;44.910;8.630;2022-12-18T13:30:51;102302.63;;;8.31;100.00
22872;BME280;11603;44.910;8.630;2022-12-18T13:36:03;102305.94;;;8.39;100.00
22872;BME280;11603;44.910;8.630;2022-12-18T13:38:36;102303.41;;;8.34;100.00
22872;BME280;11603;44.910;8.630;2022-12-18T13:43:53;102302.91;;;8.17;100.00
22872;BME280;11603;44.910;8.630;2022-12-18T13:51:46;102304.66;;;8.18;100.00
22872;BME280;11603;44.910;8.630;2022-12-18T13:56:46;102298.72;;;8.44;100.00
22872;BME280;11603;44.910;8.630;2022-12-18T13:59:18;102301.06;;;8.56;100.00
22872;BME280;11603;44.910;8.630;2022-12-18T14:01:58;102305.38;;;8.62;100.00
22872;BME280;11603;44.910;8.630;2022-12-18T14:04:27;102304.59;;;8.58;100.00
22872;BME280;11603;44.910;8.630;2022-12-18T14:07:01;102305.56;;;8.54;100.00
22872;BME280;11603;44.910;8.630;2022-12-18T14:09:35;102308.31;;;8.51;100.00
22872;BME280;11603;44.910;8.630;2022-12-18T14:12:01;102302.94;;;8.53;100.00
22872;BME280;11603;44.910;8.630;2022-12-18T14:14:48;102305.50;;;8.57;100.00
22872;BME280;11603;44.910;8.630;2022-12-18T14:17:16;102315.16;;;8.61;100.00
22872;BME280;11603;44.910;8.630;2022-12-18T14:19:44;102314.00;;;8.71;100.00
22872;BME280;11603;44.910;8.630;2022-12-18T14:22:17;102306.78;;;8.75;100.00
22872;BME280;11603;44.910;8.630;2022-12-18T14:24:43;102311.19;;;8.76;100.00
22872;BME280;11603;44.910;8.630;2022-12-18T14:27:19;102311.22;;;8.74;100.00
22872;BME280;11603;44.910;8.630;2022-12-18T14:29:44;102310.38;;;8.74;100.00
22872;BME280;11603;44.910;8.630;2022-12-18T14:32:19;102305.97;;;8.73;100.00
22872;BME280;11603;44.910;8.630;2022-12-18T14:37:13;102308.06;;;8.60;100.00
22872;BME280;11603;44.910;8.630;2022-12-18T14:39:39;102314.28;;;8.61;100.00
22872;BME280;11603;44.910;8.630;2022-12-18T14:42:05;102310.00;;;8.54;100.00
22872;BME280;11603;44.910;8.630;2022-12-18T14:44:30;102314.66;;;8.47;100.00
22872;BME280;11603;44.910;8.630;2022-12-18T14:46:57;102321.81;;;8.45;100.00